createdAt,value
2018-04-19T00:00:25.897Z,10.83
2018-04-19T00:02:53.434Z,11.20
2018-04-19T00:05:21.022Z,10.93
2018-04-19T00:07:48.552Z,10.93
2018-04-19T00:10:16.086Z,11.10
2018-04-19T00:12:43.670Z,11.70
2018-04-19T00:15:11.234Z,12.20
2018-04-19T00:17:38.804Z,11.50
2018-04-19T00:20:06.350Z,11.90
2018-04-19T00:22:33.903Z,11.37
2018-04-19T00:25:02.318Z,11.57
2018-04-19T00:27:29.887Z,11.70
2018-04-19T00:29:57.431Z,12.47
2018-04-19T00:32:25.008Z,11.23
2018-04-19T00:34:52.618Z,11.53
2018-04-19T00:37:20.195Z,12.27
2018-04-19T00:39:47.730Z,11.47
2018-04-19T00:42:15.313Z,11.30
2018-04-19T00:44:42.840Z,11.77
2018-04-19T00:47:10.402Z,10.77
2018-04-19T00:49:37.928Z,11.57
2018-04-19T00:52:05.888Z,12.77
2018-04-19T00:54:33.446Z,13.17
2018-04-19T00:57:01.039Z,12.33
2018-04-19T00:59:28.580Z,11.27
2018-04-19T01:01:56.138Z,10.77
2018-04-19T01:04:23.702Z,10.90
2018-04-19T01:06:51.225Z,11.93
2018-04-19T01:09:18.803Z,12.90
2018-04-19T01:11:46.415Z,13.10
2018-04-19T01:14:14.827Z,12.50
2018-04-19T01:16:42.422Z,12.57
2018-04-19T01:19:09.947Z,13.13
2018-04-19T01:21:37.525Z,13.43
2018-04-19T01:24:05.059Z,13.80
2018-04-19T01:26:32.627Z,12.93
2018-04-19T01:29:00.173Z,13.90
2018-04-19T01:31:28.489Z,13.87
2018-04-19T01:33:56.054Z,13.30
2018-04-19T01:36:25.434Z,15.43
2018-04-19T01:38:53.010Z,13.00
2018-04-19T01:41:23.057Z,14.00
2018-04-19T01:43:51.350Z,13.63
2018-04-19T01:46:18.905Z,12.87
2018-04-19T01:48:46.474Z,13.77
2018-04-19T01:51:13.998Z,14.10
2018-04-19T01:53:41.549Z,13.20
2018-04-19T01:56:09.955Z,14.20
2018-04-19T01:58:37.479Z,12.70
2018-04-19T02:01:05.042Z,13.17
2018-04-19T02:03:32.563Z,12.93
2018-04-19T02:06:00.149Z,13.17
2018-04-19T02:08:27.712Z,13.67
2018-04-19T02:10:55.274Z,14.00
2018-04-19T02:13:22.852Z,14.63
2018-04-19T02:15:50.386Z,14.87
2018-04-19T02:18:17.946Z,13.83
2018-04-19T02:20:45.489Z,14.87
2018-04-19T02:23:13.072Z,14.47
2018-04-19T02:25:40.598Z,14.30
2018-04-19T02:28:08.905Z,14.90
2018-04-19T02:30:36.472Z,14.07
2018-04-19T02:33:04.134Z,13.47
2018-04-19T02:35:31.699Z,15.13
2018-04-19T02:37:59.355Z,15.20
2018-04-19T02:40:26.913Z,14.73
2018-04-19T02:42:54.470Z,15.03
2018-04-19T02:45:22.004Z,16.30
2018-04-19T02:47:49.562Z,14.93
2018-04-19T02:50:17.892Z,15.63
2018-04-19T02:52:45.427Z,15.33
2018-04-19T02:55:12.988Z,16.33
2018-04-19T02:57:40.519Z,15.70
2018-04-19T03:00:08.109Z,15.23
2018-04-19T03:02:35.688Z,15.80
2018-04-19T03:05:03.221Z,15.10
2018-04-19T03:07:30.787Z,16.40
2018-04-19T03:09:58.347Z,15.30
2018-04-19T03:12:25.923Z,15.37
2018-04-19T03:14:53.675Z,16.30
2018-04-19T03:17:21.210Z,15.47
2018-04-19T03:19:48.794Z,16.00
2018-04-19T03:22:16.369Z,15.43
2018-04-19T03:24:43.888Z,15.60
2018-04-19T03:27:11.570Z,17.50
2018-04-19T03:29:39.098Z,20.60
2018-04-19T03:32:07.430Z,23.00
2018-04-19T03:34:34.985Z,18.80
2018-04-19T03:37:02.546Z,19.60
2018-04-19T03:39:30.071Z,15.97
2018-04-19T03:41:58.219Z,15.83
2018-04-19T03:44:26.513Z,17.40
2018-04-19T03:46:54.057Z,17.60
2018-04-19T03:49:22.387Z,17.43
2018-04-19T03:51:49.913Z,17.17
2018-04-19T03:54:17.470Z,16.07
2018-04-19T03:56:44.998Z,15.00
2018-04-19T03:59:12.595Z,16.27
2018-04-19T04:01:40.319Z,15.87
2018-04-19T04:04:07.866Z,14.63
2018-04-19T04:06:35.423Z,14.73
2018-04-19T04:09:02.964Z,13.63
2018-04-19T04:11:30.552Z,14.47
2018-04-19T04:13:58.078Z,14.57
2018-04-19T04:16:37.326Z,13.87
2018-04-19T04:19:16.585Z,13.13
2018-04-19T04:21:56.023Z,16.23
2018-04-19T04:24:24.359Z,17.00
2018-04-19T04:26:51.888Z,17.93
2018-04-19T04:29:19.524Z,17.00
2018-04-19T04:31:47.119Z,14.63
2018-04-19T04:34:14.646Z,14.37
2018-04-19T04:36:42.207Z,14.17
2018-04-19T04:39:09.766Z,14.90
2018-04-19T04:41:37.302Z,15.73
2018-04-19T04:44:04.841Z,14.93
2018-04-19T04:46:32.395Z,14.37
2018-04-19T04:48:59.930Z,14.00
2018-04-19T04:51:27.514Z,14.53
2018-04-19T04:53:55.055Z,13.97
2018-04-19T04:56:23.590Z,14.80
2018-04-19T04:58:51.948Z,15.40
2018-04-19T05:01:19.506Z,15.00
2018-04-19T05:03:47.079Z,15.20
2018-04-19T05:06:14.668Z,14.53
2018-04-19T05:08:42.228Z,15.87
2018-04-19T05:11:10.548Z,15.17
2018-04-19T05:13:38.143Z,15.07
2018-04-19T05:16:05.759Z,14.07
2018-04-19T05:18:33.344Z,15.73
2018-04-19T05:21:00.919Z,15.33
2018-04-19T05:23:28.460Z,14.13
2018-04-19T05:25:56.013Z,14.57
2018-04-19T05:28:23.747Z,14.40
2018-04-19T05:30:52.096Z,14.93
2018-04-19T05:33:19.631Z,14.43
2018-04-19T05:35:47.635Z,14.60
2018-04-19T05:38:15.946Z,15.30
2018-04-19T05:40:43.881Z,14.67
2018-04-19T05:43:11.473Z,15.43
2018-04-19T05:45:39.052Z,14.43
2018-04-19T05:48:06.660Z,14.57
2018-04-19T05:50:34.288Z,14.00
2018-04-19T05:53:01.855Z,14.03
2018-04-19T05:55:29.425Z,13.37
2018-04-19T05:57:57.000Z,14.43
2018-04-19T06:00:24.576Z,14.63
2018-04-19T06:02:52.166Z,12.63
2018-04-19T06:05:19.736Z,14.13
2018-04-19T06:07:47.377Z,13.20
2018-04-19T06:10:15.702Z,15.10
2018-04-19T06:12:43.318Z,13.37
2018-04-19T06:15:10.911Z,12.17
2018-04-19T06:17:38.589Z,13.83
2018-04-19T06:20:06.986Z,12.53
2018-04-19T06:22:34.633Z,12.57
2018-04-19T06:25:02.223Z,12.07
2018-04-19T06:27:30.112Z,12.23
2018-04-19T06:29:57.652Z,12.97
2018-04-19T06:32:25.232Z,11.37
2018-04-19T06:34:52.832Z,10.40
2018-04-19T06:37:20.422Z,9.63
2018-04-19T06:39:48.001Z,9.70
2018-04-19T06:42:16.718Z,9.30
2018-04-19T06:44:44.241Z,9.50
2018-04-19T06:47:11.799Z,9.63
2018-04-19T06:49:39.341Z,8.90
2018-04-19T06:52:07.675Z,9.93
2018-04-19T06:54:35.234Z,9.17
2018-04-19T06:57:02.885Z,10.70
2018-04-19T06:59:30.522Z,9.07
2018-04-19T07:01:58.092Z,9.80
2018-04-19T07:04:25.692Z,8.73
2018-04-19T07:06:53.415Z,9.10
2018-04-19T07:09:21.835Z,8.63
2018-04-19T07:11:49.399Z,10.17
2018-04-19T07:14:17.037Z,8.83
2018-04-19T07:16:44.613Z,9.17
2018-04-19T07:19:12.222Z,8.33
2018-04-19T07:21:40.633Z,8.80
2018-04-19T07:24:08.273Z,8.60
2018-04-19T07:26:35.882Z,8.23
2018-04-19T07:29:03.498Z,8.20
2018-04-19T07:31:31.162Z,8.63
2018-04-19T07:33:59.066Z,8.40
2018-04-19T07:36:26.760Z,7.67
2018-04-19T07:38:54.389Z,6.93
2018-04-19T07:41:22.975Z,8.17
2018-04-19T07:43:50.815Z,7.33
2018-04-19T07:46:18.577Z,7.43
2018-04-19T07:48:46.269Z,6.73
2018-04-19T07:51:13.962Z,6.70
2018-04-19T07:53:41.501Z,6.83
2018-04-19T07:56:09.899Z,7.27
2018-04-19T07:58:37.574Z,6.40
2018-04-19T08:01:05.134Z,6.13
2018-04-19T08:03:32.655Z,6.20
2018-04-19T08:06:00.187Z,6.43
2018-04-19T08:08:27.767Z,6.07
2018-04-19T08:10:55.326Z,7.17
2018-04-19T08:13:22.971Z,5.83
2018-04-19T08:15:50.800Z,5.63
2018-04-19T08:18:19.159Z,6.50
2018-04-19T08:20:46.728Z,5.90
2018-04-19T08:23:14.315Z,6.40
2018-04-19T08:25:41.926Z,6.33
2018-04-19T08:28:09.506Z,6.00
2018-04-19T08:30:37.071Z,6.03
2018-04-19T08:33:05.583Z,5.57
2018-04-19T08:35:33.206Z,5.70
2018-04-19T08:38:00.913Z,5.93
2018-04-19T08:40:28.454Z,5.70
2018-04-19T08:42:56.795Z,5.33
2018-04-19T08:45:24.350Z,5.47
2018-04-19T08:47:52.747Z,5.80
2018-04-19T08:50:20.302Z,6.00
2018-04-19T08:52:47.943Z,5.23
2018-04-19T08:55:15.574Z,5.73
2018-04-19T08:57:43.219Z,5.27
2018-04-19T09:00:10.903Z,5.53
2018-04-19T09:02:38.458Z,5.23
2018-04-19T09:05:06.319Z,5.70
2018-04-19T09:07:33.946Z,5.23
2018-04-19T09:10:01.629Z,5.33
2018-04-19T09:12:29.242Z,5.60
2018-04-19T09:14:56.808Z,5.23
2018-04-19T09:17:24.437Z,4.90
2018-04-19T09:19:51.981Z,5.17
2018-04-19T09:22:19.598Z,5.10
2018-04-19T09:24:47.256Z,4.73
2018-04-19T09:27:15.340Z,4.73
2018-04-19T09:29:43.200Z,4.70
2018-04-19T09:32:10.851Z,4.83
2018-04-19T09:34:38.518Z,4.90
2018-04-19T09:37:06.096Z,4.80
2018-04-19T09:39:33.845Z,4.93
2018-04-19T09:42:01.462Z,4.73
2018-04-19T09:44:29.067Z,5.13
2018-04-19T09:46:56.655Z,5.23
2018-04-19T09:49:24.265Z,5.97
2018-04-19T09:51:52.783Z,5.73
2018-04-19T09:54:20.846Z,5.50
2018-04-19T09:56:48.457Z,5.53
2018-04-19T09:59:16.244Z,4.93
2018-04-19T10:04:47.014Z,5.40
2018-04-19T10:07:14.557Z,5.53
2018-04-19T10:09:42.296Z,5.43
2018-04-19T10:12:09.916Z,5.30
2018-04-19T10:14:37.470Z,5.83
2018-04-19T10:17:05.132Z,6.03
2018-04-19T10:19:32.666Z,4.77
2018-04-19T10:22:00.250Z,5.37
2018-04-19T10:24:27.926Z,5.33
2018-04-19T10:26:55.511Z,5.33
2018-04-19T10:29:23.086Z,4.87
2018-04-19T10:31:50.671Z,5.87
2018-04-19T10:34:18.302Z,5.80
2018-04-19T10:36:45.837Z,5.00
2018-04-19T10:39:13.455Z,4.87
2018-04-19T10:41:41.740Z,5.60
2018-04-19T10:44:09.265Z,5.57
2018-04-19T10:46:36.957Z,5.67
2018-04-19T10:49:04.587Z,5.30
2018-04-19T10:51:32.158Z,5.70
2018-04-19T10:53:59.713Z,5.40
2018-04-19T10:56:27.326Z,5.43
2018-04-19T10:58:54.915Z,5.33
2018-04-19T11:01:23.245Z,5.80
2018-04-19T11:03:50.866Z,5.97
2018-04-19T11:06:18.528Z,5.07
2018-04-19T11:08:46.128Z,4.33
2018-04-19T11:11:13.715Z,4.37
2018-04-19T11:13:41.248Z,4.80
2018-04-19T11:16:08.902Z,5.10
2018-04-19T11:18:36.492Z,4.07
2018-04-19T11:21:04.171Z,5.50
2018-04-19T11:23:31.842Z,5.17
2018-04-19T11:25:59.551Z,5.23
2018-04-19T11:28:27.144Z,5.03
2018-04-19T11:30:54.854Z,4.97
2018-04-19T11:33:22.496Z,5.27
2018-04-19T11:35:50.059Z,4.60
2018-04-19T11:38:17.669Z,4.20
2018-04-19T11:40:50.237Z,4.23
2018-04-19T11:43:17.753Z,4.90
2018-04-19T11:45:46.086Z,4.70
2018-04-19T11:48:13.648Z,4.93
2018-04-19T11:50:41.228Z,4.20
2018-04-19T11:53:08.767Z,5.03
2018-04-19T11:55:36.323Z,5.17
2018-04-19T11:58:03.887Z,4.60
2018-04-19T12:00:31.727Z,4.03
2018-04-19T12:02:59.364Z,4.50
2018-04-19T12:05:26.910Z,3.77
2018-04-19T12:07:54.479Z,3.70
2018-04-19T12:10:22.846Z,3.60
2018-04-19T12:12:51.146Z,4.20
2018-04-19T12:15:18.730Z,3.93
2018-04-19T12:17:46.268Z,4.43
2018-04-19T12:20:13.884Z,3.30
2018-04-19T12:22:41.431Z,3.47
2018-04-19T12:25:08.956Z,3.47
2018-04-19T12:27:36.509Z,3.90
2018-04-19T12:30:04.274Z,3.27
2018-04-19T12:32:31.859Z,4.00
2018-04-19T12:34:59.476Z,3.47
2018-04-19T12:37:27.053Z,3.40
2018-04-19T12:39:54.740Z,3.27
2018-04-19T12:42:22.313Z,2.77
2018-04-19T12:44:49.881Z,2.83
2018-04-19T12:47:17.530Z,2.50
2018-04-19T12:49:45.078Z,2.43
2018-04-19T12:52:13.046Z,2.80
2018-04-19T12:54:40.570Z,2.53
2018-04-19T12:57:08.117Z,3.73
2018-04-19T12:59:35.749Z,2.90
2018-04-19T13:02:03.354Z,3.20
2018-04-19T13:04:30.878Z,2.93
2018-04-19T13:06:58.459Z,3.60
2018-04-19T13:09:27.982Z,3.43
2018-04-19T13:11:56.621Z,3.60
2018-04-19T13:14:24.157Z,3.27
2018-04-19T13:16:51.803Z,3.00
2018-04-19T13:19:19.358Z,3.37
2018-04-19T13:21:47.063Z,3.10
2018-04-19T13:24:14.808Z,3.37
2018-04-19T13:26:42.528Z,3.13
2018-04-19T13:29:10.085Z,3.33
2018-04-19T13:31:38.423Z,3.00
2018-04-19T13:34:05.994Z,2.90
2018-04-19T13:36:33.503Z,2.80
2018-04-19T13:39:01.179Z,3.00
2018-04-19T13:41:29.851Z,3.03
2018-04-19T13:43:57.651Z,3.20
2018-04-19T13:46:25.318Z,3.63
2018-04-19T13:48:52.847Z,3.57
2018-04-19T13:51:20.535Z,3.97
2018-04-19T13:53:48.124Z,4.07
2018-04-19T13:56:15.711Z,4.00
2018-04-19T13:58:43.290Z,3.43
2018-04-19T14:01:10.872Z,3.90
2018-04-19T14:03:38.410Z,3.20
2018-04-19T14:06:06.111Z,3.37
2018-04-19T14:08:33.758Z,3.23
2018-04-19T14:11:01.308Z,2.90
2018-04-19T14:13:28.891Z,2.53
2018-04-19T14:15:56.463Z,2.60
2018-04-19T14:18:23.992Z,3.00
2018-04-19T14:20:51.570Z,3.23
2018-04-19T14:23:19.135Z,2.50
2018-04-19T14:25:46.648Z,2.93
2018-04-19T14:28:14.300Z,2.60
2018-04-19T14:30:41.944Z,2.60
2018-04-19T14:33:09.493Z,3.23
2018-04-19T14:35:37.080Z,3.13
2018-04-19T14:38:04.792Z,2.70
2018-04-19T14:40:32.336Z,3.40
2018-04-19T14:42:59.907Z,2.50
2018-04-19T14:45:27.530Z,2.67
2018-04-19T14:47:55.133Z,2.93
2018-04-19T14:50:22.830Z,2.80
2018-04-19T14:52:50.416Z,4.37
2018-04-19T14:55:17.975Z,3.60
2018-04-19T14:57:45.551Z,3.93
2018-04-19T15:00:13.234Z,3.67
2018-04-19T15:02:40.842Z,3.27
2018-04-19T15:05:09.299Z,3.10
2018-04-19T15:07:36.907Z,2.90
2018-04-19T15:10:04.542Z,2.83
2018-04-19T15:12:32.174Z,3.07
2018-04-19T15:14:59.814Z,3.57
2018-04-19T15:17:27.413Z,3.60
2018-04-19T15:19:55.089Z,3.80
2018-04-19T15:22:22.714Z,3.03
2018-04-19T15:24:50.292Z,3.10
2018-04-19T15:27:17.895Z,3.13
2018-04-19T15:29:45.522Z,3.50
2018-04-19T15:32:13.187Z,2.70
2018-04-19T15:34:40.839Z,2.53
2018-04-19T15:37:08.387Z,2.73
2018-04-19T15:39:35.963Z,3.00
2018-04-19T15:42:03.879Z,3.20
2018-04-19T15:44:31.446Z,3.30
2018-04-19T15:46:59.026Z,2.60
2018-04-19T15:49:26.583Z,2.83
2018-04-19T15:51:54.145Z,3.43
2018-04-19T15:54:21.686Z,3.50
2018-04-19T15:56:49.228Z,3.10
2018-04-19T15:59:16.854Z,2.90
2018-04-19T16:01:44.489Z,2.70
2018-04-19T16:04:12.082Z,3.23
2018-04-19T16:06:39.647Z,3.00
2018-04-19T16:09:07.995Z,3.60
2018-04-19T16:11:36.602Z,2.80
2018-04-19T16:14:04.114Z,3.50
2018-04-19T16:16:31.712Z,3.23
2018-04-19T16:18:59.326Z,3.47
2018-04-19T16:21:26.977Z,3.10
2018-04-19T16:23:54.537Z,3.13
2018-04-19T16:26:22.184Z,3.20
2018-04-19T16:28:49.759Z,3.07
2018-04-19T16:31:17.337Z,3.13
2018-04-19T16:33:44.934Z,3.87
2018-04-19T16:36:12.506Z,3.60
2018-04-19T16:38:40.924Z,3.50
2018-04-19T16:41:08.517Z,3.47
2018-04-19T16:43:36.070Z,3.30
2018-04-19T16:46:03.669Z,2.87
2018-04-19T16:48:31.276Z,2.77
2018-04-19T16:50:59.386Z,3.50
2018-04-19T16:53:26.974Z,3.30
2018-04-19T16:55:54.682Z,3.57
2018-04-19T16:58:22.229Z,3.87
2018-04-19T17:00:49.813Z,3.73
2018-04-19T17:03:17.326Z,2.90
2018-04-19T17:05:45.809Z,3.10
2018-04-19T17:08:13.414Z,3.50
2018-04-19T17:10:41.032Z,2.97
2018-04-19T17:13:08.579Z,3.40
2018-04-19T17:15:36.192Z,2.97
2018-04-19T17:18:03.713Z,2.73
2018-04-19T17:20:31.271Z,3.10
2018-04-19T17:22:58.875Z,2.80
2018-04-19T17:25:26.478Z,3.20
2018-04-19T17:27:54.125Z,3.70
2018-04-19T17:30:21.663Z,3.40
2018-04-19T17:32:49.280Z,4.30
2018-04-19T17:35:16.822Z,3.10
2018-04-19T17:37:45.143Z,3.40
2018-04-19T17:40:12.700Z,3.47
2018-04-19T17:42:40.643Z,3.43
2018-04-19T17:45:08.995Z,3.93
2018-04-19T17:47:37.385Z,3.97
2018-04-19T17:50:05.779Z,4.03
2018-04-19T17:52:33.421Z,4.40
2018-04-19T17:55:01.757Z,3.53
2018-04-19T17:57:29.305Z,4.07
2018-04-19T17:59:56.867Z,3.27
2018-04-19T18:02:24.515Z,3.80
2018-04-19T18:04:52.060Z,3.33
2018-04-19T18:07:19.635Z,3.33
2018-04-19T18:09:47.993Z,3.30
2018-04-19T18:12:15.651Z,3.40
2018-04-19T18:14:43.986Z,3.73
2018-04-19T18:17:11.561Z,3.80
2018-04-19T18:19:39.186Z,3.70
2018-04-19T18:22:06.719Z,3.97
2018-04-19T18:24:35.043Z,4.70
2018-04-19T18:27:02.596Z,5.10
2018-04-19T18:29:30.162Z,6.97
2018-04-19T18:31:57.683Z,5.77
2018-04-19T18:34:26.107Z,6.90
2018-04-19T18:36:53.674Z,6.27
2018-04-19T18:39:21.713Z,6.07
2018-04-19T18:41:49.302Z,5.77
2018-04-19T18:44:16.835Z,5.60
2018-04-19T18:46:44.407Z,4.53
2018-04-19T18:49:11.994Z,4.43
2018-04-19T18:51:39.629Z,3.97
2018-04-19T18:54:07.154Z,3.90
2018-04-19T18:56:34.759Z,4.17
2018-04-19T18:59:02.306Z,3.60
2018-04-19T19:01:29.926Z,4.07
2018-04-19T19:03:57.473Z,3.67
2018-04-19T19:06:25.762Z,3.97
2018-04-19T19:08:53.388Z,3.70
2018-04-19T19:11:20.887Z,4.23
2018-04-19T19:13:48.476Z,3.93
2018-04-19T19:16:16.028Z,4.03
2018-04-19T19:18:55.222Z,3.73
2018-04-19T19:21:23.572Z,4.37
2018-04-19T19:23:51.151Z,4.63
2018-04-19T19:26:18.725Z,3.80
2018-04-19T19:28:47.073Z,4.00
2018-04-19T19:31:14.619Z,3.70
2018-04-19T19:33:42.178Z,3.90
2018-04-19T19:36:09.739Z,4.10
2018-04-19T19:38:37.340Z,4.33
2018-04-19T19:41:04.910Z,4.20
2018-04-19T19:43:32.483Z,4.50
2018-04-19T19:46:00.065Z,4.10
2018-04-19T19:48:27.616Z,4.30
2018-04-19T19:50:55.252Z,4.50
2018-04-19T19:53:22.788Z,5.20
2018-04-19T19:55:50.421Z,4.67
2018-04-19T19:58:18.011Z,4.43
2018-04-19T20:00:46.381Z,4.63
2018-04-19T20:03:13.904Z,4.70
2018-04-19T20:05:41.518Z,5.70
2018-04-19T20:08:09.133Z,6.03
2018-04-19T20:10:36.701Z,6.17
2018-04-19T20:13:04.266Z,5.73
2018-04-19T20:15:31.870Z,5.80
2018-04-19T20:18:00.191Z,5.80
2018-04-19T20:20:27.767Z,5.80
2018-04-19T20:22:55.301Z,5.30
2018-04-19T20:25:22.907Z,5.50
2018-04-19T20:27:51.304Z,4.50
2018-04-19T20:30:18.981Z,4.13
2018-04-19T20:32:46.537Z,4.67
2018-04-19T20:35:14.095Z,4.43
2018-04-19T20:37:41.658Z,4.90
2018-04-19T20:40:09.200Z,4.97
2018-04-19T20:42:37.543Z,4.40
2018-04-19T20:45:05.144Z,4.77
2018-04-19T20:47:32.682Z,4.77
2018-04-19T20:50:00.332Z,4.43
2018-04-19T20:52:27.865Z,4.73
2018-04-19T20:54:55.477Z,4.90
2018-04-19T20:57:23.814Z,5.50
2018-04-19T20:59:51.403Z,5.43
2018-04-19T21:02:18.951Z,5.37
2018-04-19T21:04:46.485Z,5.03
2018-04-19T21:07:14.046Z,5.93
2018-04-19T21:09:41.630Z,4.93
2018-04-19T21:12:09.151Z,5.80
2018-04-19T21:14:36.728Z,5.00
2018-04-19T21:17:04.258Z,4.90
2018-04-19T21:19:31.793Z,5.30
2018-04-19T21:21:59.346Z,5.13
2018-04-19T21:24:27.650Z,4.47
2018-04-19T21:26:55.224Z,5.53
2018-04-19T21:29:22.791Z,4.97
2018-04-19T21:31:50.342Z,5.13
2018-04-19T21:34:17.892Z,4.87
2018-04-19T21:36:45.495Z,5.57
2018-04-19T21:39:13.026Z,5.63
2018-04-19T21:41:40.613Z,5.20
2018-04-19T21:44:08.143Z,5.47
2018-04-19T21:46:35.699Z,5.33
2018-04-19T21:49:03.219Z,4.97
2018-04-19T21:51:30.787Z,5.27
2018-04-19T21:53:58.310Z,5.77
2018-04-19T21:56:25.892Z,5.37
2018-04-19T21:58:54.207Z,5.60
2018-04-19T22:01:21.848Z,5.57
2018-04-19T22:03:49.392Z,5.67
2018-04-19T22:06:16.949Z,5.97
2018-04-19T22:08:44.533Z,6.03
2018-04-19T22:11:12.049Z,5.83
2018-04-19T22:13:39.612Z,5.60
2018-04-19T22:16:07.154Z,5.37
2018-04-19T22:18:34.718Z,5.47
2018-04-19T22:21:02.294Z,5.53
2018-04-19T22:23:29.856Z,5.37
2018-04-19T22:25:57.379Z,5.60
2018-04-19T22:28:24.964Z,5.30
2018-04-19T22:30:52.503Z,5.73
2018-04-19T22:33:20.079Z,5.57
2018-04-19T22:35:47.657Z,6.07
2018-04-19T22:38:15.221Z,5.50
2018-04-19T22:40:42.891Z,5.40
2018-04-19T22:43:10.458Z,5.27
2018-04-19T22:45:38.040Z,5.27
2018-04-19T22:48:05.609Z,6.10
2018-04-19T22:50:33.136Z,5.20
2018-04-19T22:53:00.786Z,5.20
2018-04-19T22:55:28.361Z,5.13
2018-04-19T22:57:55.935Z,6.20
2018-04-19T23:00:29.018Z,6.40
2018-04-19T23:02:57.330Z,7.27
2018-04-19T23:05:24.873Z,6.90
2018-04-19T23:07:52.441Z,6.00
2018-04-19T23:10:20.018Z,6.30
2018-04-19T23:12:47.544Z,5.80
2018-04-19T23:15:15.102Z,7.67
2018-04-19T23:17:42.646Z,7.60
2018-04-19T23:20:10.218Z,6.80
2018-04-19T23:22:38.545Z,6.80
2018-04-19T23:25:06.165Z,7.27
2018-04-19T23:27:33.725Z,7.50
2018-04-19T23:30:01.372Z,7.93
2018-04-19T23:32:28.905Z,7.10
2018-04-19T23:34:56.443Z,8.07
2018-04-19T23:37:24.012Z,8.10
2018-04-19T23:39:51.572Z,8.13
2018-04-19T23:42:19.150Z,7.37
2018-04-19T23:44:46.683Z,6.60
2018-04-19T23:47:14.256Z,8.07
2018-04-19T23:49:41.813Z,7.37
2018-04-19T23:52:09.580Z,6.37
2018-04-19T23:54:37.174Z,6.10
2018-04-19T23:57:04.745Z,5.43
2018-04-19T23:59:32.310Z,5.33
